createdAt,value
2018-09-26T00:01:57.500Z,1.63
2018-09-26T00:04:31.970Z,1.00
2018-09-26T00:07:06.491Z,1.20
2018-09-26T00:09:40.644Z,1.17
2018-09-26T00:12:14.946Z,0.90
2018-09-26T00:14:48.919Z,0.80
2018-09-26T00:17:22.898Z,0.90
2018-09-26T00:19:56.844Z,0.90
2018-09-26T00:22:31.125Z,1.10
2018-09-26T00:25:05.886Z,1.10
2018-09-26T00:27:40.610Z,1.10
2018-09-26T00:30:14.744Z,1.10
2018-09-26T00:32:48.619Z,1.10
2018-09-26T00:35:22.452Z,0.80
2018-09-26T00:37:56.437Z,1.00
2018-09-26T00:40:30.599Z,0.90
2018-09-26T00:43:04.728Z,0.97
2018-09-26T00:45:38.799Z,1.40
2018-09-26T00:48:12.978Z,1.00
2018-09-26T00:50:48.876Z,1.23
2018-09-26T00:53:22.828Z,1.00
2018-09-26T00:55:56.767Z,1.20
2018-09-26T00:58:30.801Z,1.30
2018-09-26T01:01:05.361Z,1.00
2018-09-26T01:03:39.273Z,0.67
2018-09-26T01:06:14.027Z,0.97
2018-09-26T01:08:47.945Z,1.03
2018-09-26T01:11:21.914Z,1.13
2018-09-26T01:13:56.012Z,0.87
2018-09-26T01:16:30.650Z,1.20
2018-09-26T01:19:04.968Z,1.00
2018-09-26T01:21:40.560Z,0.80
2018-09-26T01:24:15.191Z,0.70
2018-09-26T01:26:49.274Z,0.90
2018-09-26T01:29:23.128Z,0.93
2018-09-26T01:31:57.325Z,0.93
2018-09-26T01:34:31.821Z,0.73
2018-09-26T01:37:05.957Z,0.57
2018-09-26T01:39:39.889Z,0.93
2018-09-26T01:42:13.960Z,1.20
2018-09-26T01:44:48.756Z,0.67
2018-09-26T01:47:22.625Z,0.70
2018-09-26T01:49:56.478Z,0.80
2018-09-26T01:52:31.200Z,0.80
2018-09-26T01:55:05.203Z,0.67
2018-09-26T01:57:39.926Z,1.10
2018-09-26T02:00:13.842Z,0.67
2018-09-26T02:02:47.894Z,0.70
2018-09-26T02:05:22.492Z,0.97
2018-09-26T02:07:57.009Z,0.70
2018-09-26T02:10:32.065Z,0.67
2018-09-26T02:13:06.180Z,1.20
2018-09-26T02:15:40.256Z,1.07
2018-09-26T02:18:15.307Z,0.47
2018-09-26T02:20:50.141Z,0.60
2018-09-26T02:23:24.981Z,1.07
2018-09-26T02:28:45.765Z,0.93
2018-09-26T02:31:19.841Z,0.90
2018-09-26T02:33:53.857Z,0.90
2018-09-26T02:36:31.318Z,0.87
2018-09-26T02:39:06.712Z,0.70
2018-09-26T02:41:40.479Z,0.80
2018-09-26T02:44:15.422Z,0.73
2018-09-26T02:46:49.566Z,1.20
2018-09-26T02:49:23.794Z,0.80
2018-09-26T02:51:57.756Z,0.80
2018-09-26T02:54:31.710Z,0.70
2018-09-26T02:57:06.761Z,1.10
2018-09-26T02:59:41.395Z,1.00
2018-09-26T03:02:16.041Z,1.07
2018-09-26T03:04:50.429Z,0.53
2018-09-26T03:07:24.258Z,0.90
2018-09-26T03:09:57.912Z,0.70
2018-09-26T03:12:32.258Z,1.07
2018-09-26T03:15:06.870Z,1.37
2018-09-26T03:17:40.938Z,1.10
2018-09-26T03:20:15.155Z,1.40
2018-09-26T03:22:49.016Z,1.00
2018-09-26T03:25:23.027Z,1.07
2018-09-26T03:27:58.158Z,0.97
2018-09-26T03:30:33.101Z,1.40
2018-09-26T03:33:07.774Z,1.10
2018-09-26T03:35:42.446Z,1.00
2018-09-26T03:38:16.810Z,1.50
2018-09-26T03:40:50.997Z,1.20
2018-09-26T03:43:24.835Z,0.97
2018-09-26T03:46:01.664Z,1.57
2018-09-26T03:48:36.340Z,1.10
2018-09-26T03:51:12.667Z,1.43
2018-09-26T03:53:53.729Z,1.03
2018-09-26T03:59:18.875Z,1.00
2018-09-26T04:01:54.527Z,1.70
2018-09-26T04:04:29.645Z,1.00
2018-09-26T04:07:03.806Z,1.83
2018-09-26T04:09:37.739Z,1.23
2018-09-26T04:12:12.311Z,0.90
2018-09-26T04:14:46.506Z,1.03
2018-09-26T04:17:20.707Z,1.03
2018-09-26T04:19:55.817Z,0.97
2018-09-26T04:22:29.713Z,0.50
2018-09-26T04:25:04.401Z,1.40
2018-09-26T04:27:38.724Z,1.30
2018-09-26T04:30:12.584Z,1.10
2018-09-26T04:32:46.566Z,1.00
2018-09-26T04:35:21.726Z,1.30
2018-09-26T04:37:56.059Z,1.40
2018-09-26T04:40:31.969Z,1.20
2018-09-26T04:45:45.015Z,1.30
2018-09-26T04:48:18.880Z,1.03
2018-09-26T04:50:53.449Z,1.40
2018-09-26T04:53:34.373Z,1.40
2018-09-26T04:56:23.020Z,1.30
2018-09-26T04:59:04.497Z,1.00
2018-09-26T05:01:53.273Z,1.10
2018-09-26T05:04:29.574Z,1.07
2018-09-26T05:09:53.602Z,1.87
2018-09-26T05:15:17.549Z,1.30
2018-09-26T05:17:51.584Z,1.10
2018-09-26T05:23:48.453Z,1.20
2018-09-26T05:26:22.843Z,1.40
2018-09-26T05:28:58.058Z,1.27
2018-09-26T05:33:32.708Z,1.20
2018-09-26T05:36:16.857Z,1.17
2018-09-26T05:44:35.976Z,1.23
2018-09-26T05:47:11.402Z,1.10
2018-09-26T05:49:56.696Z,1.33
2018-09-26T05:52:38.165Z,0.93
2018-09-26T05:58:04.273Z,1.10
2018-09-26T06:00:40.225Z,1.10
2018-09-26T06:09:34.077Z,1.00
2018-09-26T06:17:54.758Z,1.00
2018-09-26T06:23:58.090Z,1.07
2018-09-26T06:29:30.831Z,1.23
2018-09-26T06:35:24.395Z,1.10
2018-09-26T06:41:47.938Z,1.00
2018-09-26T06:50:27.126Z,1.27
2018-09-26T06:53:21.041Z,1.17
2018-09-26T06:55:55.462Z,0.97
2018-09-26T06:58:29.734Z,1.40
2018-09-26T07:01:09.099Z,1.27
2018-09-26T07:03:45.854Z,1.10
2018-09-26T07:06:27.758Z,1.30
2018-09-26T07:09:03.476Z,2.23
2018-09-26T07:11:39.538Z,2.40
2018-09-26T07:14:13.455Z,0.83
2018-09-26T07:16:47.485Z,0.80
2018-09-26T07:19:21.513Z,0.63
2018-09-26T07:21:55.655Z,1.30
2018-09-26T07:24:30.827Z,1.20
2018-09-26T07:27:05.024Z,1.00
2018-09-26T07:29:39.174Z,0.70
2018-09-26T07:32:13.310Z,0.77
2018-09-26T07:34:47.394Z,0.77
2018-09-26T07:37:21.508Z,1.10
2018-09-26T07:39:57.722Z,1.00
2018-09-26T07:42:31.875Z,1.00
2018-09-26T07:45:10.075Z,0.80
2018-09-26T07:47:46.224Z,0.87
2018-09-26T07:50:21.847Z,0.70
2018-09-26T07:53:01.803Z,0.90
2018-09-26T07:55:36.380Z,0.70
2018-09-26T07:58:11.768Z,0.80
2018-09-26T08:00:47.037Z,0.60
2018-09-26T08:03:21.023Z,1.00
2018-09-26T08:05:55.290Z,0.97
2018-09-26T08:08:29.508Z,0.80
2018-09-26T08:11:04.092Z,1.20
2018-09-26T08:13:38.173Z,0.80
2018-09-26T08:16:13.042Z,0.60
2018-09-26T08:18:47.094Z,1.00
2018-09-26T08:21:21.900Z,0.80
2018-09-26T08:23:56.005Z,1.03
2018-09-26T08:26:30.074Z,0.80
2018-09-26T08:29:04.670Z,1.03
2018-09-26T08:31:38.783Z,1.03
2018-09-26T08:34:12.957Z,0.70
2018-09-26T08:36:46.995Z,1.10
2018-09-26T08:39:22.522Z,0.83
2018-09-26T08:41:57.986Z,1.13
2018-09-26T08:44:32.010Z,0.70
2018-09-26T08:47:06.223Z,1.10
2018-09-26T08:49:40.205Z,1.00
2018-09-26T08:52:18.209Z,1.27
2018-09-26T08:54:52.266Z,1.17
2018-09-26T08:57:27.363Z,1.27
2018-09-26T09:00:02.824Z,1.07
2018-09-26T09:02:36.798Z,1.50
2018-09-26T09:05:11.099Z,0.97
2018-09-26T09:07:45.129Z,0.73
2018-09-26T09:10:19.342Z,1.13
2018-09-26T09:12:54.150Z,0.90
2018-09-26T09:15:29.182Z,0.77
2018-09-26T09:18:04.370Z,0.30
2018-09-26T09:20:38.353Z,0.93
2018-09-26T09:23:12.887Z,0.47
2018-09-26T09:25:47.652Z,0.90
2018-09-26T09:28:22.337Z,0.80
2018-09-26T09:30:56.229Z,1.23
2018-09-26T09:33:31.300Z,0.73
2018-09-26T09:36:05.185Z,1.00
2018-09-26T09:38:38.966Z,0.47
2018-09-26T09:41:13.371Z,1.10
2018-09-26T09:43:47.236Z,0.87
2018-09-26T09:46:21.331Z,0.83
2018-09-26T09:48:56.133Z,0.50
2018-09-26T09:51:30.854Z,0.87
2018-09-26T09:54:04.606Z,0.40
2018-09-26T09:56:38.458Z,0.43
2018-09-26T09:59:12.162Z,0.80
2018-09-26T10:01:45.804Z,0.53
2018-09-26T10:04:19.602Z,0.60
2018-09-26T10:06:53.166Z,0.87
2018-09-26T10:09:26.742Z,0.87
2018-09-26T10:12:00.669Z,0.60
2018-09-26T10:14:34.414Z,0.60
2018-09-26T10:17:08.137Z,0.70
2018-09-26T10:19:42.033Z,0.67
2018-09-26T10:22:15.809Z,0.50
2018-09-26T10:24:49.723Z,0.80
2018-09-26T10:27:23.429Z,0.70
2018-09-26T10:29:57.015Z,0.50
2018-09-26T10:32:30.690Z,0.67
2018-09-26T10:35:05.953Z,0.13
2018-09-26T10:37:39.746Z,0.40
2018-09-26T10:40:13.727Z,0.70
2018-09-26T10:42:47.730Z,0.40
2018-09-26T10:45:21.562Z,0.50
2018-09-26T10:47:55.440Z,0.80
2018-09-26T10:50:29.202Z,0.30
2018-09-26T10:53:02.846Z,0.40
2018-09-26T10:55:36.661Z,0.60
2018-09-26T10:58:10.535Z,0.67
2018-09-26T11:00:44.322Z,0.77
2018-09-26T11:03:18.206Z,0.50
2018-09-26T11:05:52.009Z,0.70
2018-09-26T11:08:25.901Z,0.57
2018-09-26T11:10:59.638Z,0.60
2018-09-26T11:13:33.490Z,0.30
2018-09-26T11:16:07.369Z,0.40
2018-09-26T11:18:41.114Z,0.57
2018-09-26T11:21:14.952Z,0.80
2018-09-26T11:23:48.662Z,0.70
2018-09-26T11:26:22.546Z,0.60
2018-09-26T11:28:56.351Z,0.70
2018-09-26T11:31:30.179Z,0.40
2018-09-26T11:34:04.162Z,1.03
2018-09-26T11:36:38.167Z,0.90
2018-09-26T11:39:12.348Z,0.50
2018-09-26T11:41:45.895Z,0.30
2018-09-26T11:44:19.773Z,0.93
2018-09-26T11:46:53.588Z,0.80
2018-09-26T11:49:27.395Z,1.10
2018-09-26T11:52:01.302Z,0.20
2018-09-26T11:54:35.210Z,1.00
2018-09-26T11:57:09.034Z,0.70
2018-09-26T11:59:42.892Z,1.63
2018-09-26T12:02:16.612Z,0.43
2018-09-26T12:04:50.374Z,1.50
2018-09-26T12:07:24.047Z,0.70
2018-09-26T12:09:57.933Z,0.97
2018-09-26T12:12:31.589Z,0.97
2018-09-26T12:15:05.566Z,1.60
2018-09-26T12:17:39.356Z,0.50
2018-09-26T12:20:13.026Z,1.63
2018-09-26T12:22:46.893Z,0.67
2018-09-26T12:25:20.783Z,1.23
2018-09-26T12:27:54.485Z,1.20
2018-09-26T12:30:28.416Z,1.03
2018-09-26T12:33:02.196Z,0.53
2018-09-26T12:35:36.169Z,2.00
2018-09-26T12:38:10.034Z,0.67
2018-09-26T12:40:43.860Z,0.43
2018-09-26T12:43:17.892Z,0.70
2018-09-26T12:45:51.681Z,1.00
2018-09-26T12:48:25.488Z,0.57
2018-09-26T12:50:59.390Z,1.20
2018-09-26T12:53:33.351Z,1.00
2018-09-26T12:56:07.272Z,1.97
2018-09-26T12:58:41.191Z,1.33
2018-09-26T13:01:15.046Z,1.53
2018-09-26T13:03:48.687Z,1.73
2018-09-26T13:06:22.660Z,0.77
2018-09-26T13:08:56.292Z,0.33
2018-09-26T13:11:29.993Z,1.10
2018-09-26T13:14:03.845Z,1.97
2018-09-26T13:16:37.751Z,1.13
2018-09-26T13:19:11.463Z,0.80
2018-09-26T13:21:45.122Z,0.90
2018-09-26T13:24:19.133Z,1.73
2018-09-26T13:26:53.111Z,1.80
2018-09-26T13:29:27.060Z,1.00
2018-09-26T13:32:01.050Z,1.73
2018-09-26T13:34:34.839Z,0.80
2018-09-26T13:37:08.815Z,0.77
2018-09-26T13:39:42.733Z,1.80
2018-09-26T13:42:16.669Z,1.30
2018-09-26T13:44:50.590Z,2.47
2018-09-26T13:47:24.278Z,0.70
2018-09-26T13:49:58.037Z,0.40
2018-09-26T13:52:32.026Z,1.37
2018-09-26T13:55:05.924Z,1.30
2018-09-26T13:57:39.597Z,1.00
2018-09-26T14:00:16.415Z,1.03
2018-09-26T14:02:50.304Z,1.60
2018-09-26T14:05:24.204Z,0.53
2018-09-26T14:07:57.834Z,1.23
2018-09-26T14:10:31.905Z,1.87
2018-09-26T14:13:05.710Z,1.60
2018-09-26T14:15:39.309Z,1.40
2018-09-26T14:18:13.252Z,1.87
2018-09-26T14:20:47.033Z,1.77
2018-09-26T14:23:20.854Z,0.97
2018-09-26T14:25:54.544Z,1.37
2018-09-26T14:28:28.192Z,1.77
2018-09-26T14:31:01.925Z,2.20
2018-09-26T14:33:35.888Z,2.27
2018-09-26T14:36:09.638Z,1.80
2018-09-26T14:38:43.525Z,1.30
2018-09-26T14:41:17.443Z,0.87
2018-09-26T14:43:51.131Z,1.90
2018-09-26T14:46:25.008Z,1.50
2018-09-26T14:48:58.877Z,1.90
2018-09-26T14:51:32.564Z,1.73
2018-09-26T14:54:06.497Z,1.57
2018-09-26T14:56:40.244Z,1.97
2018-09-26T14:59:14.129Z,1.50
2018-09-26T15:01:48.024Z,1.13
2018-09-26T15:04:21.786Z,1.70
2018-09-26T15:06:55.625Z,1.43
2018-09-26T15:09:29.603Z,1.30
2018-09-26T15:12:03.489Z,1.23
2018-09-26T15:14:37.350Z,1.17
2018-09-26T15:17:11.174Z,1.60
2018-09-26T15:19:48.229Z,1.77
2018-09-26T15:22:22.418Z,1.50
2018-09-26T15:24:56.324Z,1.67
2018-09-26T15:27:30.148Z,1.47
2018-09-26T15:30:04.295Z,2.00
2018-09-26T15:32:38.076Z,1.27
2018-09-26T15:35:11.984Z,1.13
2018-09-26T15:37:46.384Z,1.07
2018-09-26T15:40:20.532Z,0.47
2018-09-26T15:42:54.220Z,0.50
2018-09-26T15:45:28.228Z,0.93
2018-09-26T15:48:02.291Z,1.37
2018-09-26T15:50:36.301Z,1.67
2018-09-26T15:53:10.156Z,1.13
2018-09-26T15:55:44.101Z,1.40
2018-09-26T15:58:18.117Z,0.90
2018-09-26T16:00:52.044Z,0.60
2018-09-26T16:03:26.019Z,0.60
2018-09-26T16:05:59.846Z,0.60
2018-09-26T16:08:33.695Z,0.50
2018-09-26T16:11:07.719Z,0.23
2018-09-26T16:13:41.856Z,0.60
2018-09-26T16:16:15.704Z,0.30
2018-09-26T16:18:49.666Z,0.33
2018-09-26T16:21:23.604Z,0.40
2018-09-26T16:23:57.622Z,0.50
2018-09-26T16:26:31.712Z,0.40
2018-09-26T16:29:05.705Z,0.40
2018-09-26T16:31:39.744Z,0.50
2018-09-26T16:34:13.584Z,0.23
2018-09-26T16:36:47.428Z,0.50
2018-09-26T16:39:21.348Z,0.27
2018-09-26T16:41:55.158Z,0.47
2018-09-26T16:44:28.891Z,0.50
2018-09-26T16:47:02.968Z,0.37
2018-09-26T16:49:36.875Z,0.20
2018-09-26T16:52:10.928Z,0.33
2018-09-26T16:54:44.733Z,0.40
2018-09-26T16:57:18.577Z,0.60
2018-09-26T16:59:52.482Z,0.30
2018-09-26T17:02:26.264Z,0.40
2018-09-26T17:05:00.208Z,0.30
2018-09-26T17:07:34.169Z,0.33
2018-09-26T17:10:08.318Z,0.60
2018-09-26T17:12:42.146Z,0.20
2018-09-26T17:15:15.875Z,0.33
2018-09-26T17:17:49.656Z,0.30
2018-09-26T17:20:23.463Z,0.20
2018-09-26T17:22:57.413Z,0.40
2018-09-26T17:25:31.443Z,0.20
2018-09-26T17:28:05.293Z,0.33
2018-09-26T17:30:39.195Z,0.20
2018-09-26T17:33:13.127Z,0.20
2018-09-26T17:35:47.037Z,0.50
2018-09-26T17:38:20.910Z,0.43
2018-09-26T17:40:54.702Z,0.40
2018-09-26T17:43:28.621Z,0.37
2018-09-26T17:46:02.610Z,0.30
2018-09-26T17:48:36.425Z,0.37
2018-09-26T17:51:10.425Z,0.13
2018-09-26T17:53:44.188Z,0.20
2018-09-26T17:56:18.282Z,3.60
2018-09-26T17:58:52.194Z,0.30
2018-09-26T18:01:26.219Z,0.30
2018-09-26T18:04:00.316Z,0.30
2018-09-26T18:06:34.478Z,0.20
2018-09-26T18:09:09.412Z,0.10
2018-09-26T18:11:43.585Z,0.40
2018-09-26T18:14:17.631Z,0.40
2018-09-26T18:16:51.962Z,0.20
2018-09-26T18:19:25.967Z,0.23
2018-09-26T18:22:00.041Z,0.10
2018-09-26T18:24:34.172Z,0.20
2018-09-26T18:27:08.349Z,0.10
2018-09-26T18:29:42.426Z,0.37
2018-09-26T18:32:16.559Z,0.30
2018-09-26T18:34:50.384Z,0.20
2018-09-26T18:37:24.281Z,0.10
2018-09-26T18:39:58.208Z,0.30
2018-09-26T18:42:32.639Z,0.30
2018-09-26T18:45:06.982Z,0.20
2018-09-26T18:47:41.448Z,0.20
2018-09-26T18:50:15.356Z,0.10
2018-09-26T18:52:49.551Z,0.10
2018-09-26T18:55:23.483Z,0.27
2018-09-26T18:58:04.074Z,0.30
2018-09-26T19:00:38.120Z,0.30
2018-09-26T19:03:12.698Z,0.13
2018-09-26T19:05:46.502Z,0.20
2018-09-26T19:08:20.391Z,0.10
2018-09-26T19:10:54.499Z,0.10
2018-09-26T19:13:28.575Z,0.17
2018-09-26T19:16:02.637Z,0.10
2018-09-26T19:18:36.997Z,1.13
2018-09-26T19:21:11.039Z,0.10
2018-09-26T19:23:45.052Z,0.40
2018-09-26T19:26:19.398Z,0.20
2018-09-26T19:28:53.593Z,0.10
2018-09-26T19:31:27.684Z,0.10
2018-09-26T19:34:02.201Z,0.03
2018-09-26T19:36:36.132Z,0.10
2018-09-26T19:39:11.517Z,0.20
2018-09-26T19:41:45.537Z,0.07
2018-09-26T19:44:19.662Z,0.20
2018-09-26T19:46:53.710Z,0.20
2018-09-26T19:49:27.821Z,0.10
2018-09-26T19:52:01.970Z,0.10
2018-09-26T19:54:35.851Z,0.03
2018-09-26T19:57:09.975Z,0.30
2018-09-26T19:59:43.844Z,0.27
2018-09-26T20:02:17.906Z,0.27
2018-09-26T20:04:51.892Z,0.20
2018-09-26T20:07:25.609Z,0.23
2018-09-26T20:09:59.531Z,0.20
2018-09-26T20:12:33.729Z,0.10
2018-09-26T20:15:07.859Z,0.30
2018-09-26T20:17:41.653Z,0.20
2018-09-26T20:20:15.530Z,0.10
2018-09-26T20:22:49.427Z,0.00
2018-09-26T20:25:23.276Z,0.23
2018-09-26T20:27:57.309Z,0.00
2018-09-26T20:30:31.391Z,0.10
2018-09-26T20:33:05.641Z,0.43
2018-09-26T20:35:39.533Z,0.10
2018-09-26T20:38:13.621Z,0.10
2018-09-26T20:40:47.565Z,0.10
2018-09-26T20:43:21.401Z,0.10
2018-09-26T20:45:55.247Z,0.20
2018-09-26T20:48:29.306Z,0.03
2018-09-26T20:51:03.054Z,0.07
2018-09-26T20:53:36.900Z,0.00
2018-09-26T20:56:10.682Z,0.00
2018-09-26T20:58:44.369Z,0.17
2018-09-26T21:01:18.276Z,0.13
2018-09-26T21:03:52.025Z,0.20
2018-09-26T21:06:26.095Z,0.40
2018-09-26T21:08:59.941Z,0.20
2018-09-26T21:11:33.720Z,0.10
2018-09-26T21:14:07.975Z,0.10
2018-09-26T21:16:41.837Z,0.50
2018-09-26T21:19:15.818Z,0.20
2018-09-26T21:21:49.738Z,0.10
2018-09-26T21:24:23.747Z,0.20
2018-09-26T21:26:57.735Z,0.20
2018-09-26T21:29:31.639Z,0.10
2018-09-26T21:32:05.541Z,0.10
2018-09-26T21:34:39.499Z,0.20
2018-09-26T21:37:13.326Z,0.30
2018-09-26T21:39:47.374Z,0.10
2018-09-26T21:42:21.391Z,1.30
2018-09-26T21:44:55.281Z,0.20
2018-09-26T21:47:29.254Z,0.10
2018-09-26T21:50:03.145Z,0.07
2018-09-26T21:52:37.194Z,0.10
2018-09-26T21:55:11.035Z,0.13
2018-09-26T21:57:44.969Z,0.20
2018-09-26T22:00:19.089Z,0.20
2018-09-26T22:02:52.921Z,0.20
2018-09-26T22:05:26.864Z,0.20
2018-09-26T22:08:00.703Z,0.13
2018-09-26T22:10:34.820Z,0.10
2018-09-26T22:13:08.812Z,0.20
2018-09-26T22:15:42.749Z,0.30
2018-09-26T22:18:16.564Z,0.20
2018-09-26T22:20:50.346Z,0.20
2018-09-26T22:23:24.413Z,0.13
2018-09-26T22:25:58.284Z,0.27
2018-09-26T22:28:32.112Z,0.13
2018-09-26T22:31:05.849Z,0.10
2018-09-26T22:33:39.672Z,0.20
2018-09-26T22:36:13.541Z,0.20
2018-09-26T22:38:47.394Z,0.10
2018-09-26T22:41:21.314Z,0.20
2018-09-26T22:43:55.054Z,0.10
2018-09-26T22:46:28.933Z,0.10
2018-09-26T22:49:02.885Z,0.27
2018-09-26T22:51:36.774Z,0.17
2018-09-26T22:54:10.599Z,0.13
2018-09-26T22:56:44.485Z,0.13
2018-09-26T22:59:18.297Z,0.20
2018-09-26T23:01:52.080Z,0.10
2018-09-26T23:04:25.949Z,0.20
2018-09-26T23:06:59.709Z,0.20
2018-09-26T23:09:33.632Z,0.30
2018-09-26T23:12:07.564Z,0.10
2018-09-26T23:14:41.495Z,0.10
2018-09-26T23:17:15.392Z,0.27
2018-09-26T23:19:49.348Z,0.20
2018-09-26T23:22:23.174Z,0.20
2018-09-26T23:24:57.134Z,0.27
2018-09-26T23:27:31.024Z,0.30
2018-09-26T23:30:05.174Z,0.10
2018-09-26T23:32:38.874Z,0.20
2018-09-26T23:35:12.840Z,0.20
2018-09-26T23:37:46.779Z,0.17
2018-09-26T23:40:20.725Z,0.20
2018-09-26T23:42:54.536Z,0.23
2018-09-26T23:45:28.654Z,0.20
2018-09-26T23:48:02.499Z,0.30
2018-09-26T23:50:36.709Z,0.30
2018-09-26T23:53:12.096Z,0.30
2018-09-26T23:55:46.974Z,0.13
2018-09-26T23:58:20.921Z,0.30
